sensor_id;sensor_type;location;lat;lon;timestamp;temperature;humidity
11908;DHT22;6014;47.690;9.130;2023-08-06T04:46:11;15.10;99.90
11908;DHT22;6014;47.690;9.130;2023-08-06T04:48:40;14.10;99.90
11908;DHT22;6014;47.690;9.130;2023-08-06T04:53:36;14.00;99.90
11908;DHT22;6014;47.690;9.130;2023-08-06T04:56:04;14.00;99.90
11908;DHT22;6014;47.690;9.130;2023-08-06T04:58:33;14.00;99.90
11908;DHT22;6014;47.690;9.130;2023-08-06T05:01:05;13.90;99.90
11908;DHT22;6014;47.690;9.130;2023-08-06T05:03:34;13.90;99.90
11908;DHT22;6014;47.690;9.130;2023-08-06T05:06:03;13.90;99.90
11908;DHT22;6014;47.690;9.130;2023-08-06T05:08:31;13.90;99.90
11908;DHT22;6014;47.690;9.130;2023-08-06T05:10:59;13.70;99.90
11908;DHT22;6014;47.690;9.130;2023-08-06T05:13:27;13.80;99.90
11908;DHT22;6014;47.690;9.130;2023-08-06T05:15:57;13.70;99.90
11908;DHT22;6014;47.690;9.130;2023-08-06T05:18:26;13.70;99.90
11908;DHT22;6014;47.690;9.130;2023-08-06T05:20:54;13.70;99.90
11908;DHT22;6014;47.690;9.130;2023-08-06T05:23:22;13.60;99.90
11908;DHT22;6014;47.690;9.130;2023-08-06T05:53:26;13.60;99.90
11908;DHT22;6014;47.690;9.130;2023-08-06T06:55:36;13.20;99.90
11908;DHT22;6014;47.690;9.130;2023-08-06T06:58:04;14.50;99.90
11908;DHT22;6014;47.690;9.130;2023-08-06T07:00:32;14.40;99.90
11908;DHT22;6014;47.690;9.130;2023-08-06T07:03:16;14.40;99.90
11908;DHT22;6014;47.690;9.130;2023-08-06T07:05:47;14.50;99.90
11908;DHT22;6014;47.690;9.130;2023-08-06T07:08:15;14.50;99.90
11908;DHT22;6014;47.690;9.130;2023-08-06T07:10:45;14.60;99.90
11908;DHT22;6014;47.690;9.130;2023-08-06T07:13:13;14.50;99.90
11908;DHT22;6014;47.690;9.130;2023-08-06T07:15:42;14.40;99.90
11908;DHT22;6014;47.690;9.130;2023-08-06T07:18:10;14.20;99.90
11908;DHT22;6014;47.690;9.130;2023-08-06T07:20:39;14.10;99.90
11908;DHT22;6014;47.690;9.130;2023-08-06T07:23:07;14.20;99.90
11908;DHT22;6014;47.690;9.130;2023-08-06T07:25:37;14.10;99.90
11908;DHT22;6014;47.690;9.130;2023-08-06T07:28:06;14.30;99.90
11908;DHT22;6014;47.690;9.130;2023-08-06T07:30:38;14.30;99.90
11908;DHT22;6014;47.690;9.130;2023-08-06T07:33:07;14.30;99.90
11908;DHT22;6014;47.690;9.130;2023-08-06T07:35:37;14.30;99.90
11908;DHT22;6014;47.690;9.130;2023-08-06T07:38:05;14.20;99.90
11908;DHT22;6014;47.690;9.130;2023-08-06T07:40:47;14.00;99.90
11908;DHT22;6014;47.690;9.130;2023-08-06T07:43:19;13.80;99.90
11908;DHT22;6014;47.690;9.130;2023-08-06T07:45:47;13.70;99.90
11908;DHT22;6014;47.690;9.130;2023-08-06T07:48:16;13.70;99.90
11908;DHT22;6014;47.690;9.130;2023-08-06T07:50:44;13.80;99.90
11908;DHT22;6014;47.690;9.130;2023-08-06T07:53:17;13.90;99.90
11908;DHT22;6014;47.690;9.130;2023-08-06T07:55:49;14.10;99.90
11908;DHT22;6014;47.690;9.130;2023-08-06T07:58:18;14.20;99.90
11908;DHT22;6014;47.690;9.130;2023-08-06T08:00:47;14.30;99.90
11908;DHT22;6014;47.690;9.130;2023-08-06T08:03:16;14.40;99.90
11908;DHT22;6014;47.690;9.130;2023-08-06T08:05:44;14.50;99.90
11908;DHT22;6014;47.690;9.130;2023-08-06T08:08:17;14.50;99.90
11908;DHT22;6014;47.690;9.130;2023-08-06T08:10:45;14.50;99.90
11908;DHT22;6014;47.690;9.130;2023-08-06T08:13:15;14.50;99.90
11908;DHT22;6014;47.690;9.130;2023-08-06T08:15:44;14.60;99.90
11908;DHT22;6014;47.690;9.130;2023-08-06T08:18:13;14.60;99.90
11908;DHT22;6014;47.690;9.130;2023-08-06T08:20:41;14.70;99.90
11908;DHT22;6014;47.690;9.130;2023-08-06T08:23:10;14.60;99.90
11908;DHT22;6014;47.690;9.130;2023-08-06T08:25:40;14.40;99.90
11908;DHT22;6014;47.690;9.130;2023-08-06T08:28:08;14.20;99.90
11908;DHT22;6014;47.690;9.130;2023-08-06T08:30:37;13.90;99.90
11908;DHT22;6014;47.690;9.130;2023-08-06T08:33:12;13.80;99.90
11908;DHT22;6014;47.690;9.130;2023-08-06T08:35:41;13.60;99.90
11908;DHT22;6014;47.690;9.130;2023-08-06T08:38:09;13.60;99.90
11908;DHT22;6014;47.690;9.130;2023-08-06T08:40:46;13.60;99.90
11908;DHT22;6014;47.690;9.130;2023-08-06T08:43:15;13.70;99.90
11908;DHT22;6014;47.690;9.130;2023-08-06T08:45:44;13.80;99.90
11908;DHT22;6014;47.690;9.130;2023-08-06T08:48:23;13.90;99.90
11908;DHT22;6014;47.690;9.130;2023-08-06T08:50:52;14.00;99.90
11908;DHT22;6014;47.690;9.130;2023-08-06T08:53:21;13.90;99.90
11908;DHT22;6014;47.690;9.130;2023-08-06T08:55:50;13.90;99.90
11908;DHT22;6014;47.690;9.130;2023-08-06T08:58:19;13.90;99.90
11908;DHT22;6014;47.690;9.130;2023-08-06T09:00:47;13.90;99.90
11908;DHT22;6014;47.690;9.130;2023-08-06T09:03:17;13.80;99.90
11908;DHT22;6014;47.690;9.130;2023-08-06T09:05:53;13.80;99.90
11908;DHT22;6014;47.690;9.130;2023-08-06T09:08:27;13.90;99.90
11908;DHT22;6014;47.690;9.130;2023-08-06T09:11:06;13.90;99.90
11908;DHT22;6014;47.690;9.130;2023-08-06T09:13:40;14.10;99.90
11908;DHT22;6014;47.690;9.130;2023-08-06T09:16:09;14.00;99.90
11908;DHT22;6014;47.690;9.130;2023-08-06T09:18:39;13.90;99.90
11908;DHT22;6014;47.690;9.130;2023-08-06T09:21:13;14.00;99.90
11908;DHT22;6014;47.690;9.130;2023-08-06T09:23:50;14.20;99.90
11908;DHT22;6014;47.690;9.130;2023-08-06T09:26:22;14.30;99.90
11908;DHT22;6014;47.690;9.130;2023-08-06T09:28:52;14.60;99.90
11908;DHT22;6014;47.690;9.130;2023-08-06T09:31:20;14.80;99.90
11908;DHT22;6014;47.690;9.130;2023-08-06T09:33:48;14.80;99.90
11908;DHT22;6014;47.690;9.130;2023-08-06T09:36:19;14.80;99.90
11908;DHT22;6014;47.690;9.130;2023-08-06T09:38:54;14.70;99.90
11908;DHT22;6014;47.690;9.130;2023-08-06T09:41:28;14.50;99.90
11908;DHT22;6014;47.690;9.130;2023-08-06T09:43:59;14.50;99.90
11908;DHT22;6014;47.690;9.130;2023-08-06T09:46:28;14.40;99.90
11908;DHT22;6014;47.690;9.130;2023-08-06T09:48:59;14.30;99.90
11908;DHT22;6014;47.690;9.130;2023-08-06T09:51:31;14.40;99.90
11908;DHT22;6014;47.690;9.130;2023-08-06T09:54:01;14.50;99.90
11908;DHT22;6014;47.690;9.130;2023-08-06T09:56:47;14.60;99.90
11908;DHT22;6014;47.690;9.130;2023-08-06T09:59:19;14.70;99.90
11908;DHT22;6014;47.690;9.130;2023-08-06T10:01:48;15.10;99.90
11908;DHT22;6014;47.690;9.130;2023-08-06T10:04:16;15.70;99.90
11908;DHT22;6014;47.690;9.130;2023-08-06T10:07:13;15.80;99.90
11908;DHT22;6014;47.690;9.130;2023-08-06T10:09:43;16.10;99.90
11908;DHT22;6014;47.690;9.130;2023-08-06T10:12:11;16.20;99.90
11908;DHT22;6014;47.690;9.130;2023-08-06T10:14:41;16.40;99.90
11908;DHT22;6014;47.690;9.130;2023-08-06T10:17:17;16.50;99.90
11908;DHT22;6014;47.690;9.130;2023-08-06T10:19:47;17.10;99.90
11908;DHT22;6014;47.690;9.130;2023-08-06T10:22:26;17.10;99.90
11908;DHT22;6014;47.690;9.130;2023-08-06T10:25:03;16.80;99.90
11908;DHT22;6014;47.690;9.130;2023-08-06T10:27:33;15.80;99.90
11908;DHT22;6014;47.690;9.130;2023-08-06T10:30:23;15.40;99.90
11908;DHT22;6014;47.690;9.130;2023-08-06T10:32:57;14.70;99.90
11908;DHT22;6014;47.690;9.130;2023-08-06T10:35:31;14.50;99.90
11908;DHT22;6014;47.690;9.130;2023-08-06T10:38:07;14.40;99.90
11908;DHT22;6014;47.690;9.130;2023-08-06T10:40:39;14.50;99.90
11908;DHT22;6014;47.690;9.130;2023-08-06T10:43:08;14.70;99.90
11908;DHT22;6014;47.690;9.130;2023-08-06T10:45:54;14.80;99.90
11908;DHT22;6014;47.690;9.130;2023-08-06T10:48:34;15.10;99.90
11908;DHT22;6014;47.690;9.130;2023-08-06T10:51:03;15.00;99.90
11908;DHT22;6014;47.690;9.130;2023-08-06T10:53:33;15.20;99.90
11908;DHT22;6014;47.690;9.130;2023-08-06T10:56:12;15.50;99.90
11908;DHT22;6014;47.690;9.130;2023-08-06T10:58:41;15.80;99.90
11908;DHT22;6014;47.690;9.130;2023-08-06T11:01:11;15.70;99.90
11908;DHT22;6014;47.690;9.130;2023-08-06T11:03:42;15.80;99.90
11908;DHT22;6014;47.690;9.130;2023-08-06T11:06:22;16.00;99.90
11908;DHT22;6014;47.690;9.130;2023-08-06T11:09:01;16.20;99.90
11908;DHT22;6014;47.690;9.130;2023-08-06T11:11:33;16.50;99.90
11908;DHT22;6014;47.690;9.130;2023-08-06T11:14:15;16.20;99.90
11908;DHT22;6014;47.690;9.130;2023-08-06T11:16:44;16.10;99.90
11908;DHT22;6014;47.690;9.130;2023-08-06T11:19:12;16.20;99.90
11908;DHT22;6014;47.690;9.130;2023-08-06T11:21:43;16.20;99.90
11908;DHT22;6014;47.690;9.130;2023-08-06T11:24:12;16.10;99.90
11908;DHT22;6014;47.690;9.130;2023-08-06T11:26:40;16.30;99.90
11908;DHT22;6014;47.690;9.130;2023-08-06T11:29:15;16.60;99.90
11908;DHT22;6014;47.690;9.130;2023-08-06T11:31:43;16.60;99.90
11908;DHT22;6014;47.690;9.130;2023-08-06T11:34:15;16.50;99.90
11908;DHT22;6014;47.690;9.130;2023-08-06T11:36:47;17.00;99.90
11908;DHT22;6014;47.690;9.130;2023-08-06T11:39:31;17.00;99.90
11908;DHT22;6014;47.690;9.130;2023-08-06T11:42:07;17.80;99.90
11908;DHT22;6014;47.690;9.130;2023-08-06T11:44:50;17.60;99.90
11908;DHT22;6014;47.690;9.130;2023-08-06T11:47:20;17.10;99.90
11908;DHT22;6014;47.690;9.130;2023-08-06T11:49:51;16.80;99.90
11908;DHT22;6014;47.690;9.130;2023-08-06T11:52:24;16.70;99.90
11908;DHT22;6014;47.690;9.130;2023-08-06T11:55:06;16.70;99.90
11908;DHT22;6014;47.690;9.130;2023-08-06T11:57:38;16.70;99.90
11908;DHT22;6014;47.690;9.130;2023-08-06T12:00:08;16.50;99.90
11908;DHT22;6014;47.690;9.130;2023-08-06T12:02:40;16.50;99.90
11908;DHT22;6014;47.690;9.130;2023-08-06T12:05:19;16.30;99.90
11908;DHT22;6014;47.690;9.130;2023-08-06T12:07:54;16.40;99.90
11908;DHT22;6014;47.690;9.130;2023-08-06T12:10:25;16.60;99.90
11908;DHT22;6014;47.690;9.130;2023-08-06T12:12:58;16.70;99.90
11908;DHT22;6014;47.690;9.130;2023-08-06T12:15:28;16.80;99.90
11908;DHT22;6014;47.690;9.130;2023-08-06T12:18:07;16.90;99.90
11908;DHT22;6014;47.690;9.130;2023-08-06T12:20:39;16.90;99.90
11908;DHT22;6014;47.690;9.130;2023-08-06T12:23:07;16.60;99.90
11908;DHT22;6014;47.690;9.130;2023-08-06T12:25:44;16.30;99.90
11908;DHT22;6014;47.690;9.130;2023-08-06T12:28:18;16.20;99.90
11908;DHT22;6014;47.690;9.130;2023-08-06T12:30:52;16.10;99.90
11908;DHT22;6014;47.690;9.130;2023-08-06T12:33:22;16.10;99.90
11908;DHT22;6014;47.690;9.130;2023-08-06T12:35:50;16.10;99.90
11908;DHT22;6014;47.690;9.130;2023-08-06T12:38:27;16.40;99.90
11908;DHT22;6014;47.690;9.130;2023-08-06T12:40:59;16.50;99.90
11908;DHT22;6014;47.690;9.130;2023-08-06T12:43:27;16.30;99.90
11908;DHT22;6014;47.690;9.130;2023-08-06T12:46:00;16.60;99.90
11908;DHT22;6014;47.690;9.130;2023-08-06T12:48:28;16.40;99.90
11908;DHT22;6014;47.690;9.130;2023-08-06T12:50:57;16.30;99.90
11908;DHT22;6014;47.690;9.130;2023-08-06T12:53:32;16.50;99.90
11908;DHT22;6014;47.690;9.130;2023-08-06T12:56:01;16.20;99.90
11908;DHT22;6014;47.690;9.130;2023-08-06T12:58:29;16.50;99.90
11908;DHT22;6014;47.690;9.130;2023-08-06T13:00:57;16.30;99.90
11908;DHT22;6014;47.690;9.130;2023-08-06T13:03:25;16.70;99.90
11908;DHT22;6014;47.690;9.130;2023-08-06T13:06:02;16.60;99.90
11908;DHT22;6014;47.690;9.130;2023-08-06T13:08:30;16.90;99.90
11908;DHT22;6014;47.690;9.130;2023-08-06T13:11:00;16.60;99.90
11908;DHT22;6014;47.690;9.130;2023-08-06T13:13:42;16.50;99.90
11908;DHT22;6014;47.690;9.130;2023-08-06T13:16:12;16.30;99.90
11908;DHT22;6014;47.690;9.130;2023-08-06T13:18:47;16.30;99.90
11908;DHT22;6014;47.690;9.130;2023-08-06T13:21:17;16.50;99.90
11908;DHT22;6014;47.690;9.130;2023-08-06T13:23:47;16.30;99.90
11908;DHT22;6014;47.690;9.130;2023-08-06T13:26:25;16.30;99.90
11908;DHT22;6014;47.690;9.130;2023-08-06T13:29:01;16.40;99.90
11908;DHT22;6014;47.690;9.130;2023-08-06T13:31:30;16.50;99.90
11908;DHT22;6014;47.690;9.130;2023-08-06T13:33:58;16.70;99.90
11908;DHT22;6014;47.690;9.130;2023-08-06T13:36:27;16.80;99.90
11908;DHT22;6014;47.690;9.130;2023-08-06T13:39:00;16.90;99.90
11908;DHT22;6014;47.690;9.130;2023-08-06T13:41:34;16.90;99.90
11908;DHT22;6014;47.690;9.130;2023-08-06T13:44:02;17.40;99.90
11908;DHT22;6014;47.690;9.130;2023-08-06T13:46:32;18.30;99.90
11908;DHT22;6014;47.690;9.130;2023-08-06T13:49:02;18.50;99.90
11908;DHT22;6014;47.690;9.130;2023-08-06T13:51:32;19.40;99.90
11908;DHT22;6014;47.690;9.130;2023-08-06T13:54:04;19.60;98.30
11908;DHT22;6014;47.690;9.130;2023-08-06T13:56:35;19.80;98.10
11908;DHT22;6014;47.690;9.130;2023-08-06T13:59:06;19.60;97.60
11908;DHT22;6014;47.690;9.130;2023-08-06T14:01:35;20.00;97.70
11908;DHT22;6014;47.690;9.130;2023-08-06T14:04:20;19.60;96.20
11908;DHT22;6014;47.690;9.130;2023-08-06T14:06:49;19.70;96.00
11908;DHT22;6014;47.690;9.130;2023-08-06T14:09:17;19.90;95.00
11908;DHT22;6014;47.690;9.130;2023-08-06T14:11:47;18.60;95.70
11908;DHT22;6014;47.690;9.130;2023-08-06T14:14:15;19.50;96.10
11908;DHT22;6014;47.690;9.130;2023-08-06T14:16:45;19.50;95.60
11908;DHT22;6014;47.690;9.130;2023-08-06T14:19:13;19.70;94.80
11908;DHT22;6014;47.690;9.130;2023-08-06T14:21:42;19.60;94.40
11908;DHT22;6014;47.690;9.130;2023-08-06T14:24:11;19.90;93.50
11908;DHT22;6014;47.690;9.130;2023-08-06T14:26:39;19.30;93.40
11908;DHT22;6014;47.690;9.130;2023-08-06T14:29:09;19.70;94.90
11908;DHT22;6014;47.690;9.130;2023-08-06T14:31:38;18.90;94.40
11908;DHT22;6014;47.690;9.130;2023-08-06T14:34:07;17.90;95.50
11908;DHT22;6014;47.690;9.130;2023-08-06T14:36:37;17.70;96.60
11908;DHT22;6014;47.690;9.130;2023-08-06T14:39:05;17.10;97.00
11908;DHT22;6014;47.690;9.130;2023-08-06T14:41:35;17.40;97.40
11908;DHT22;6014;47.690;9.130;2023-08-06T14:44:04;17.10;98.20
11908;DHT22;6014;47.690;9.130;2023-08-06T14:46:41;17.90;98.50
11908;DHT22;6014;47.690;9.130;2023-08-06T14:49:10;19.00;97.50
11908;DHT22;6014;47.690;9.130;2023-08-06T14:51:40;18.90;96.80
11908;DHT22;6014;47.690;9.130;2023-08-06T14:54:15;19.20;97.30
11908;DHT22;6014;47.690;9.130;2023-08-06T14:56:45;18.80;95.40
11908;DHT22;6014;47.690;9.130;2023-08-06T14:59:21;19.30;95.70
11908;DHT22;6014;47.690;9.130;2023-08-06T15:01:51;19.60;95.50
11908;DHT22;6014;47.690;9.130;2023-08-06T15:04:21;20.00;94.30
11908;DHT22;6014;47.690;9.130;2023-08-06T15:06:51;19.90;94.70
11908;DHT22;6014;47.690;9.130;2023-08-06T15:09:20;19.50;94.00
11908;DHT22;6014;47.690;9.130;2023-08-06T15:11:49;19.40;94.50
11908;DHT22;6014;47.690;9.130;2023-08-06T15:14:17;19.10;94.00
11908;DHT22;6014;47.690;9.130;2023-08-06T15:16:46;19.30;93.10
11908;DHT22;6014;47.690;9.130;2023-08-06T15:19:19;19.10;93.30
11908;DHT22;6014;47.690;9.130;2023-08-06T15:21:47;19.40;93.20
11908;DHT22;6014;47.690;9.130;2023-08-06T15:24:15;19.40;93.10
11908;DHT22;6014;47.690;9.130;2023-08-06T15:26:44;19.50;92.20
11908;DHT22;6014;47.690;9.130;2023-08-06T15:29:12;19.00;92.40
11908;DHT22;6014;47.690;9.130;2023-08-06T15:31:42;19.60;92.10
11908;DHT22;6014;47.690;9.130;2023-08-06T15:34:26;19.30;92.20
11908;DHT22;6014;47.690;9.130;2023-08-06T15:36:54;19.00;92.90
11908;DHT22;6014;47.690;9.130;2023-08-06T15:39:25;18.90;93.60
11908;DHT22;6014;47.690;9.130;2023-08-06T15:41:54;18.50;93.30
11908;DHT22;6014;47.690;9.130;2023-08-06T15:44:22;18.40;94.10
11908;DHT22;6014;47.690;9.130;2023-08-06T15:46:52;17.70;94.70
11908;DHT22;6014;47.690;9.130;2023-08-06T15:49:29;17.50;95.50
11908;DHT22;6014;47.690;9.130;2023-08-06T15:51:57;17.70;96.80
11908;DHT22;6014;47.690;9.130;2023-08-06T15:54:33;17.40;97.10
11908;DHT22;6014;47.690;9.130;2023-08-06T15:57:01;17.10;95.90
11908;DHT22;6014;47.690;9.130;2023-08-06T15:59:32;17.00;96.30
11908;DHT22;6014;47.690;9.130;2023-08-06T16:02:01;16.80;96.50
11908;DHT22;6014;47.690;9.130;2023-08-06T16:04:42;16.70;97.30
11908;DHT22;6014;47.690;9.130;2023-08-06T16:07:17;16.50;96.50
11908;DHT22;6014;47.690;9.130;2023-08-06T16:09:47;15.30;99.90
11908;DHT22;6014;47.690;9.130;2023-08-06T16:12:24;14.30;99.90
11908;DHT22;6014;47.690;9.130;2023-08-06T16:15:07;14.10;99.90
11908;DHT22;6014;47.690;9.130;2023-08-06T16:17:39;14.20;99.90
11908;DHT22;6014;47.690;9.130;2023-08-06T16:20:10;14.20;99.90
11908;DHT22;6014;47.690;9.130;2023-08-06T16:22:44;14.40;99.90
11908;DHT22;6014;47.690;9.130;2023-08-06T16:25:16;14.80;99.90
11908;DHT22;6014;47.690;9.130;2023-08-06T16:27:45;15.40;99.90
11908;DHT22;6014;47.690;9.130;2023-08-06T16:30:13;15.40;99.90
11908;DHT22;6014;47.690;9.130;2023-08-06T16:32:49;15.20;99.90
11908;DHT22;6014;47.690;9.130;2023-08-06T16:35:21;15.50;99.90
11908;DHT22;6014;47.690;9.130;2023-08-06T16:37:53;16.00;99.90
11908;DHT22;6014;47.690;9.130;2023-08-06T16:40:21;15.80;99.90
11908;DHT22;6014;47.690;9.130;2023-08-06T16:42:49;15.80;99.90
11908;DHT22;6014;47.690;9.130;2023-08-06T16:45:25;15.50;99.90
11908;DHT22;6014;47.690;9.130;2023-08-06T16:47:59;15.30;99.90
11908;DHT22;6014;47.690;9.130;2023-08-06T16:50:37;15.70;99.90
11908;DHT22;6014;47.690;9.130;2023-08-06T16:53:06;15.60;99.90
11908;DHT22;6014;47.690;9.130;2023-08-06T16:55:36;15.60;99.90
11908;DHT22;6014;47.690;9.130;2023-08-06T16:58:06;15.80;99.90
11908;DHT22;6014;47.690;9.130;2023-08-06T17:00:40;16.00;99.90
11908;DHT22;6014;47.690;9.130;2023-08-06T17:03:08;15.80;99.90
11908;DHT22;6014;47.690;9.130;2023-08-06T17:05:44;15.70;99.90
11908;DHT22;6014;47.690;9.130;2023-08-06T17:08:12;15.80;99.90
11908;DHT22;6014;47.690;9.130;2023-08-06T17:10:40;15.80;99.90
11908;DHT22;6014;47.690;9.130;2023-08-06T17:13:08;15.80;99.90
11908;DHT22;6014;47.690;9.130;2023-08-06T17:15:54;15.80;99.90
11908;DHT22;6014;47.690;9.130;2023-08-06T17:18:24;15.90;99.90
11908;DHT22;6014;47.690;9.130;2023-08-06T17:20:55;15.90;99.90
11908;DHT22;6014;47.690;9.130;2023-08-06T17:23:25;15.90;99.90
11908;DHT22;6014;47.690;9.130;2023-08-06T17:26:07;15.80;99.90
11908;DHT22;6014;47.690;9.130;2023-08-06T17:28:37;15.70;99.90
11908;DHT22;6014;47.690;9.130;2023-08-06T17:31:07;15.70;99.90
11908;DHT22;6014;47.690;9.130;2023-08-06T17:33:37;15.70;99.90
11908;DHT22;6014;47.690;9.130;2023-08-06T17:36:08;15.60;99.90
11908;DHT22;6014;47.690;9.130;2023-08-06T17:38:36;15.60;99.90
11908;DHT22;6014;47.690;9.130;2023-08-06T17:41:06;15.50;99.90
11908;DHT22;6014;47.690;9.130;2023-08-06T17:43:37;15.50;99.90
11908;DHT22;6014;47.690;9.130;2023-08-06T17:46:07;15.50;99.90
11908;DHT22;6014;47.690;9.130;2023-08-06T17:48:35;15.60;99.90
11908;DHT22;6014;47.690;9.130;2023-08-06T17:51:08;15.50;99.90
11908;DHT22;6014;47.690;9.130;2023-08-06T17:53:36;15.50;99.90
11908;DHT22;6014;47.690;9.130;2023-08-06T17:56:05;15.50;99.90
11908;DHT22;6014;47.690;9.130;2023-08-06T17:58:34;15.40;99.90
11908;DHT22;6014;47.690;9.130;2023-08-06T18:01:02;15.40;99.90
11908;DHT22;6014;47.690;9.130;2023-08-06T18:03:31;15.50;99.60
11908;DHT22;6014;47.690;9.130;2023-08-06T18:06:00;15.50;99.10
11908;DHT22;6014;47.690;9.130;2023-08-06T18:08:30;15.50;98.50
11908;DHT22;6014;47.690;9.130;2023-08-06T18:11:02;15.40;99.00
11908;DHT22;6014;47.690;9.130;2023-08-06T18:13:32;15.40;99.60
11908;DHT22;6014;47.690;9.130;2023-08-06T18:16:04;15.40;99.90
11908;DHT22;6014;47.690;9.130;2023-08-06T18:18:34;15.40;99.90
11908;DHT22;6014;47.690;9.130;2023-08-06T18:21:02;15.50;99.90
11908;DHT22;6014;47.690;9.130;2023-08-06T18:23:34;15.50;99.90
11908;DHT22;6014;47.690;9.130;2023-08-06T18:26:02;15.40;99.90
11908;DHT22;6014;47.690;9.130;2023-08-06T18:28:30;15.40;99.90
11908;DHT22;6014;47.690;9.130;2023-08-06T18:31:00;15.40;99.90
11908;DHT22;6014;47.690;9.130;2023-08-06T18:33:30;15.20;99.90
11908;DHT22;6014;47.690;9.130;2023-08-06T18:35:59;15.20;99.90
11908;DHT22;6014;47.690;9.130;2023-08-06T18:38:29;15.10;99.90
11908;DHT22;6014;47.690;9.130;2023-08-06T18:41:02;15.20;99.90
11908;DHT22;6014;47.690;9.130;2023-08-06T18:43:30;15.20;99.90
11908;DHT22;6014;47.690;9.130;2023-08-06T18:45:59;15.20;99.90
11908;DHT22;6014;47.690;9.130;2023-08-06T18:48:29;15.30;99.90
11908;DHT22;6014;47.690;9.130;2023-08-06T18:51:01;15.30;99.90
11908;DHT22;6014;47.690;9.130;2023-08-06T18:53:29;15.20;99.50
11908;DHT22;6014;47.690;9.130;2023-08-06T18:55:57;14.40;99.90
11908;DHT22;6014;47.690;9.130;2023-08-06T18:58:26;14.00;99.90
11908;DHT22;6014;47.690;9.130;2023-08-06T19:01:00;14.00;99.90
11908;DHT22;6014;47.690;9.130;2023-08-06T19:03:28;13.90;99.90
11908;DHT22;6014;47.690;9.130;2023-08-06T19:05:58;13.90;99.90
11908;DHT22;6014;47.690;9.130;2023-08-06T19:08:30;14.10;99.90
11908;DHT22;6014;47.690;9.130;2023-08-06T19:11:03;14.20;99.90
11908;DHT22;6014;47.690;9.130;2023-08-06T19:13:33;14.50;99.90
11908;DHT22;6014;47.690;9.130;2023-08-06T19:16:06;14.60;99.90
11908;DHT22;6014;47.690;9.130;2023-08-06T19:18:34;14.80;99.90
11908;DHT22;6014;47.690;9.130;2023-08-06T19:21:04;14.70;99.90
11908;DHT22;6014;47.690;9.130;2023-08-06T19:23:34;14.20;99.90
11908;DHT22;6014;47.690;9.130;2023-08-06T19:26:02;13.80;99.90
11908;DHT22;6014;47.690;9.130;2023-08-06T19:28:30;13.50;99.90
11908;DHT22;6014;47.690;9.130;2023-08-06T19:31:01;13.50;99.90
11908;DHT22;6014;47.690;9.130;2023-08-06T19:33:32;13.60;99.90
11908;DHT22;6014;47.690;9.130;2023-08-06T19:36:00;13.60;99.90
11908;DHT22;6014;47.690;9.130;2023-08-06T19:38:29;13.80;99.90
11908;DHT22;6014;47.690;9.130;2023-08-06T19:41:03;13.80;99.90
11908;DHT22;6014;47.690;9.130;2023-08-06T19:43:33;13.90;99.90
11908;DHT22;6014;47.690;9.130;2023-08-06T19:46:06;14.00;99.90
11908;DHT22;6014;47.690;9.130;2023-08-06T19:48:38;14.10;99.90
11908;DHT22;6014;47.690;9.130;2023-08-06T19:51:14;14.10;99.90
11908;DHT22;6014;47.690;9.130;2023-08-06T19:53:44;14.20;99.90
11908;DHT22;6014;47.690;9.130;2023-08-06T19:56:15;14.20;99.90
11908;DHT22;6014;47.690;9.130;2023-08-06T19:58:45;14.30;99.90
11908;DHT22;6014;47.690;9.130;2023-08-06T20:01:18;14.20;99.90
11908;DHT22;6014;47.690;9.130;2023-08-06T20:03:46;14.20;99.90
11908;DHT22;6014;47.690;9.130;2023-08-06T20:06:14;14.20;99.90
11908;DHT22;6014;47.690;9.130;2023-08-06T20:08:49;14.20;99.90
11908;DHT22;6014;47.690;9.130;2023-08-06T20:11:18;14.20;99.90
11908;DHT22;6014;47.690;9.130;2023-08-06T20:13:47;14.20;99.90
11908;DHT22;6014;47.690;9.130;2023-08-06T20:16:18;14.20;99.90
11908;DHT22;6014;47.690;9.130;2023-08-06T20:18:53;14.20;99.90
11908;DHT22;6014;47.690;9.130;2023-08-06T20:21:22;14.20;99.90
11908;DHT22;6014;47.690;9.130;2023-08-06T20:23:59;14.20;99.90
11908;DHT22;6014;47.690;9.130;2023-08-06T20:26:27;14.20;99.90
11908;DHT22;6014;47.690;9.130;2023-08-06T20:29:05;14.10;99.90
11908;DHT22;6014;47.690;9.130;2023-08-06T20:31:36;14.10;99.90
11908;DHT22;6014;47.690;9.130;2023-08-06T20:34:04;14.10;99.90
11908;DHT22;6014;47.690;9.130;2023-08-06T20:36:34;14.10;99.90
11908;DHT22;6014;47.690;9.130;2023-08-06T20:39:03;14.10;99.90
11908;DHT22;6014;47.690;9.130;2023-08-06T20:41:32;14.10;99.90
11908;DHT22;6014;47.690;9.130;2023-08-06T20:44:04;14.10;99.90
11908;DHT22;6014;47.690;9.130;2023-08-06T20:46:32;14.10;99.90
11908;DHT22;6014;47.690;9.130;2023-08-06T20:49:02;14.10;99.90
11908;DHT22;6014;47.690;9.130;2023-08-06T20:51:31;14.30;99.90
11908;DHT22;6014;47.690;9.130;2023-08-06T20:54:00;14.30;99.90
11908;DHT22;6014;47.690;9.130;2023-08-06T20:56:29;14.30;99.90
11908;DHT22;6014;47.690;9.130;2023-08-06T20:59:04;14.20;99.90
11908;DHT22;6014;47.690;9.130;2023-08-06T21:01:43;14.20;99.90
11908;DHT22;6014;47.690;9.130;2023-08-06T21:04:13;14.20;99.90
11908;DHT22;6014;47.690;9.130;2023-08-06T21:06:44;14.20;99.90
11908;DHT22;6014;47.690;9.130;2023-08-06T21:09:22;14.20;99.90
11908;DHT22;6014;47.690;9.130;2023-08-06T21:11:50;14.20;99.90
11908;DHT22;6014;47.690;9.130;2023-08-06T21:14:22;14.20;99.90
11908;DHT22;6014;47.690;9.130;2023-08-06T21:16:52;14.20;99.90
11908;DHT22;6014;47.690;9.130;2023-08-06T21:19:21;14.20;99.90
11908;DHT22;6014;47.690;9.130;2023-08-06T21:21:49;14.30;99.90
11908;DHT22;6014;47.690;9.130;2023-08-06T21:24:20;14.30;99.90
11908;DHT22;6014;47.690;9.130;2023-08-06T21:26:49;14.30;99.90
11908;DHT22;6014;47.690;9.130;2023-08-06T21:29:17;14.30;99.90
11908;DHT22;6014;47.690;9.130;2023-08-06T21:31:51;14.30;99.90
11908;DHT22;6014;47.690;9.130;2023-08-06T21:34:23;14.40;99.90
11908;DHT22;6014;47.690;9.130;2023-08-06T21:36:52;14.30;99.90
11908;DHT22;6014;47.690;9.130;2023-08-06T21:39:22;14.30;99.90
11908;DHT22;6014;47.690;9.130;2023-08-06T21:41:52;14.30;99.90
11908;DHT22;6014;47.690;9.130;2023-08-06T21:44:21;14.30;99.90
11908;DHT22;6014;47.690;9.130;2023-08-06T21:46:49;14.30;99.90
11908;DHT22;6014;47.690;9.130;2023-08-06T21:49:17;14.30;99.90
11908;DHT22;6014;47.690;9.130;2023-08-06T21:51:50;14.30;99.90
11908;DHT22;6014;47.690;9.130;2023-08-06T21:54:19;14.20;99.90
11908;DHT22;6014;47.690;9.130;2023-08-06T21:56:53;14.20;99.90
11908;DHT22;6014;47.690;9.130;2023-08-06T21:59:27;14.20;99.90
11908;DHT22;6014;47.690;9.130;2023-08-06T22:01:56;14.20;99.90
11908;DHT22;6014;47.690;9.130;2023-08-06T22:04:24;14.20;99.90
11908;DHT22;6014;47.690;9.130;2023-08-06T22:06:55;14.20;99.90
11908;DHT22;6014;47.690;9.130;2023-08-06T22:09:23;14.20;99.90
11908;DHT22;6014;47.690;9.130;2023-08-06T22:11:52;14.10;99.90
11908;DHT22;6014;47.690;9.130;2023-08-06T22:14:25;14.10;99.90
11908;DHT22;6014;47.690;9.130;2023-08-06T22:17:02;14.10;99.90
11908;DHT22;6014;47.690;9.130;2023-08-06T22:19:31;14.10;99.90
11908;DHT22;6014;47.690;9.130;2023-08-06T22:22:01;14.10;99.90
11908;DHT22;6014;47.690;9.130;2023-08-06T22:24:33;14.10;99.90